Sierra City, California
Current Conditions -  °F | °C
As of 12:52 PM on Monday 24 Nov 2014 (Local Time) from KBLU Reporting Station
Clear Clear  
Wind Chill: 56°   Ceiling: Unl
Heat Index: 56°   Visibility: 10mi
Dew Point: 15°   Wind: 6mph
Humidity: 20%   Direction: 300°WNW
Pressure: 30.4"   Gusts: NA
Location:  39.57°N, 120.64°W
Report Text: KBLU 242052Z AUTO 30005KT 10SM CLR 13/M09 A3040 RMK AO2 SLP260 T01331094 58005
Loading
Personal Weather Stations






























Interactive Weather Map New forecast layout! Learn more

10-Day Weather Forecast

Advertisements
Track Severe Weather on mobile